createdAt,value
2022-08-28T11:59:24.670Z,83.25
2022-08-28T12:02:15.472Z,83.75
2022-08-28T12:03:16.374Z,83.75
2022-08-28T12:05:04.633Z,83.35
2022-08-28T12:05:16.450Z,84.35
2022-08-28T12:08:05.381Z,84.69
2022-08-28T12:09:05.427Z,84.89
2022-08-28T12:10:05.427Z,84.29
2022-08-28T12:11:05.398Z,84.29
2022-08-28T12:12:06.209Z,84.89
2022-08-28T12:14:42.345Z,86.20
2022-08-28T12:18:53.203Z,85.39
2022-08-28T12:19:04.779Z,83.89
2022-08-28T12:26:12.654Z,85.25
2022-08-28T12:29:27.300Z,84.41
2022-08-28T12:30:27.200Z,84.61
2022-08-28T12:35:20.328Z,81.56
2022-08-28T12:36:20.319Z,82.46
2022-08-28T12:37:20.304Z,82.57
2022-08-28T12:38:20.288Z,84.07
2022-08-28T12:39:20.297Z,83.17
2022-08-28T12:40:20.359Z,82.46
2022-08-28T12:41:20.969Z,82.03
2022-08-28T12:44:59.979Z,81.82
2022-08-28T12:46:00.075Z,81.59
2022-08-28T12:46:59.973Z,81.18
2022-08-28T12:48:01.772Z,81.88
2022-08-28T12:48:59.975Z,81.29
2022-08-28T12:50:03.048Z,80.65
2022-08-28T12:52:36.540Z,79.85
2022-08-28T12:53:36.994Z,78.50
2022-08-28T12:54:36.980Z,78.30
2022-08-28T12:55:37.004Z,80.30
2022-08-28T12:56:36.964Z,80.47
2022-08-28T12:57:36.988Z,79.67
2022-08-28T12:58:38.603Z,80.87
2022-08-28T12:59:38.562Z,79.17
2022-08-28T13:00:37.239Z,81.43
2022-08-28T13:01:37.146Z,80.23
2022-08-28T13:02:36.998Z,78.53
2022-08-28T13:03:37.252Z,76.29
2022-08-28T13:04:36.941Z,79.29
2022-08-28T13:05:36.901Z,77.45
2022-08-28T13:06:36.896Z,76.92
2022-08-28T13:07:36.884Z,77.38
2022-08-28T13:08:36.881Z,76.68
2022-08-28T13:09:36.855Z,75.25
2022-08-28T13:10:36.885Z,74.55
2022-08-28T13:11:36.859Z,72.92
2022-08-28T13:12:55.281Z,72.81
2022-08-28T13:13:36.819Z,71.92
2022-08-28T13:15:08.186Z,71.59
2022-08-28T13:15:36.804Z,73.28
2022-08-28T13:16:36.934Z,72.28
2022-08-28T13:17:36.850Z,72.49
2022-08-28T13:18:36.782Z,70.26
2022-08-28T13:19:47.752Z,67.60
2022-08-28T13:20:39.066Z,67.50
2022-08-28T13:21:37.635Z,69.62
2022-08-28T13:22:36.745Z,67.23
2022-08-28T13:23:36.728Z,68.46
2022-08-28T13:24:36.713Z,69.16
2022-08-28T13:25:40.247Z,68.99
2022-08-28T13:26:36.701Z,69.79
2022-08-28T13:27:38.462Z,69.29
2022-08-28T13:28:36.676Z,71.39
2022-08-28T13:29:36.691Z,72.13
2022-08-28T13:30:36.715Z,72.72
2022-08-28T13:31:36.767Z,72.22
2022-08-28T13:32:36.737Z,72.42
2022-08-28T13:35:31.678Z,73.49
2022-08-28T13:38:20.673Z,75.15
2022-08-28T13:39:20.711Z,71.36
2022-08-28T13:40:53.319Z,72.69
2022-08-28T13:41:20.730Z,73.25
2022-08-28T13:42:21.816Z,73.25
2022-08-28T13:43:20.705Z,72.95
2022-08-28T13:44:20.691Z,72.81
2022-08-28T13:45:20.673Z,72.72
2022-08-28T13:46:20.733Z,71.15
2022-08-28T13:47:20.636Z,71.86
2022-08-28T13:48:20.646Z,72.95
2022-08-28T13:49:20.627Z,73.02
2022-08-28T13:50:20.604Z,74.41
2022-08-28T13:51:21.374Z,72.12
2022-08-28T13:52:20.597Z,70.49
2022-08-28T13:53:20.601Z,71.39
2022-08-28T13:54:20.576Z,71.29
2022-08-28T13:55:20.564Z,69.59
2022-08-28T13:56:21.849Z,70.99
2022-08-28T13:57:20.557Z,70.09
2022-08-28T13:58:20.555Z,70.79
2022-08-28T13:59:20.525Z,70.69
2022-08-28T14:00:20.535Z,71.09
2022-08-28T14:01:22.480Z,71.29
2022-08-28T14:02:20.557Z,70.89
2022-08-28T14:03:20.486Z,71.75
2022-08-28T14:04:20.492Z,70.65
2022-08-28T14:05:20.467Z,70.16
2022-08-28T14:06:20.487Z,70.16
2022-08-28T14:07:20.453Z,70.16
2022-08-28T14:08:20.435Z,70.26
2022-08-28T14:09:20.450Z,70.75
2022-08-28T14:10:20.446Z,69.49
2022-08-28T14:11:20.435Z,69.29
2022-08-28T14:12:20.412Z,70.59
2022-08-28T14:13:20.401Z,69.79
2022-08-28T14:14:20.402Z,69.69
2022-08-28T14:15:20.377Z,70.39
2022-08-28T14:16:20.427Z,71.42
2022-08-28T14:17:20.364Z,72.12
2022-08-28T14:18:20.393Z,70.83
2022-08-28T14:19:20.356Z,71.22
2022-08-28T14:20:20.345Z,70.62
2022-08-28T14:21:20.343Z,70.76
2022-08-28T14:22:20.319Z,71.86
2022-08-28T14:23:20.317Z,72.55
2022-08-28T14:24:20.312Z,71.95
2022-08-28T14:25:20.296Z,72.59
2022-08-28T14:26:20.274Z,73.49
2022-08-28T14:27:20.269Z,72.78
2022-08-28T14:28:20.257Z,71.92
2022-08-28T14:29:20.285Z,71.83
2022-08-28T14:30:20.270Z,71.96
2022-08-28T14:31:20.430Z,72.16
2022-08-28T14:32:20.226Z,72.06
2022-08-28T14:33:20.751Z,72.39
2022-08-28T14:34:20.334Z,73.29
2022-08-28T14:35:20.270Z,73.59
2022-08-28T14:36:20.202Z,72.69
2022-08-28T14:37:20.201Z,73.03
2022-08-28T14:38:20.172Z,72.92
2022-08-28T14:39:20.200Z,74.03
2022-08-28T14:40:20.245Z,70.53
2022-08-28T14:41:20.146Z,69.53
2022-08-28T14:42:20.141Z,71.12
2022-08-28T14:43:20.129Z,71.92
2022-08-28T14:44:20.120Z,72.83
2022-08-28T14:45:20.134Z,73.03
2022-08-28T14:46:20.149Z,70.86
2022-08-28T14:47:20.096Z,70.73
2022-08-28T14:48:20.080Z,71.73
2022-08-28T14:49:20.106Z,72.53
2022-08-28T14:50:20.075Z,73.33
2022-08-28T14:51:20.057Z,73.89
2022-08-28T14:52:20.078Z,73.79
2022-08-28T14:53:20.046Z,72.49
2022-08-28T14:54:20.030Z,71.96
2022-08-28T14:55:20.069Z,71.66
2022-08-28T14:56:20.007Z,71.26
2022-08-28T14:57:20.008Z,71.06
2022-08-28T14:58:19.987Z,73.56
2022-08-28T14:59:24.050Z,73.36
2022-08-28T15:00:20.017Z,71.66
2022-08-28T15:01:20.029Z,72.66
2022-08-28T15:02:19.967Z,73.86
2022-08-28T15:03:19.952Z,72.56
2022-08-28T15:04:20.002Z,72.52
2022-08-28T15:05:19.931Z,71.83
2022-08-28T15:06:19.931Z,71.72
2022-08-28T15:07:19.922Z,71.92
2022-08-28T15:08:19.909Z,70.83
2022-08-28T15:09:19.899Z,71.62
2022-08-28T15:10:19.881Z,72.72
2022-08-28T15:11:19.899Z,73.92
2022-08-28T15:12:19.864Z,75.92
2022-08-28T15:13:19.858Z,74.05
2022-08-28T15:14:19.846Z,74.66
2022-08-28T15:15:19.841Z,75.26
2022-08-28T15:16:19.912Z,73.59
2022-08-28T15:17:19.816Z,73.89
2022-08-28T15:18:19.807Z,74.63
2022-08-28T15:19:19.802Z,76.03
2022-08-28T15:20:19.790Z,75.13
2022-08-28T15:21:19.846Z,76.06
2022-08-28T15:22:27.093Z,75.26
2022-08-28T15:23:19.772Z,75.26
2022-08-28T15:24:19.870Z,75.67
2022-08-28T15:25:19.745Z,76.50
2022-08-28T15:26:19.835Z,76.40
2022-08-28T15:27:19.741Z,77.30
2022-08-28T15:28:19.716Z,76.90
2022-08-28T15:29:19.714Z,76.30
2022-08-28T15:30:19.694Z,77.30
2022-08-28T15:31:19.728Z,77.30
2022-08-28T15:32:19.690Z,77.00
2022-08-28T15:33:19.673Z,75.90
2022-08-28T15:34:19.662Z,76.06
2022-08-28T15:35:19.656Z,76.67
2022-08-28T15:36:19.643Z,76.56
2022-08-28T15:37:19.662Z,76.83
2022-08-28T15:38:19.626Z,75.93
2022-08-28T15:39:19.629Z,74.53
2022-08-28T15:40:19.657Z,74.63
2022-08-28T15:41:19.608Z,74.93
2022-08-28T15:42:19.603Z,74.43
2022-08-28T15:43:19.690Z,75.93
2022-08-28T15:44:19.605Z,75.23
2022-08-28T15:45:19.626Z,75.63
2022-08-28T15:46:19.553Z,76.13
2022-08-28T15:47:19.565Z,75.43
2022-08-28T15:48:19.540Z,75.02
2022-08-28T15:49:19.722Z,75.63
2022-08-28T15:50:19.868Z,75.43
2022-08-28T15:51:23.880Z,75.63
2022-08-28T15:52:19.535Z,76.33
2022-08-28T15:53:19.520Z,75.52
2022-08-28T15:54:19.483Z,75.83
2022-08-28T15:55:19.478Z,76.13
2022-08-28T15:56:19.470Z,76.93
2022-08-28T15:57:19.462Z,78.23
2022-08-28T15:58:19.464Z,78.13
2022-08-28T15:59:19.448Z,78.43
2022-08-28T16:00:19.438Z,78.93
2022-08-28T16:01:19.506Z,78.93
2022-08-28T16:02:19.552Z,78.73
2022-08-28T16:03:19.431Z,78.43
2022-08-28T16:04:19.400Z,78.33
2022-08-28T16:05:19.397Z,78.53
2022-08-28T16:06:19.378Z,78.83
2022-08-28T16:07:19.381Z,77.93
2022-08-28T16:08:19.380Z,77.43
2022-08-28T16:09:19.368Z,77.49
2022-08-28T16:10:19.344Z,77.59
2022-08-28T16:11:19.343Z,77.19
2022-08-28T16:12:19.331Z,77.39
2022-08-28T16:13:19.347Z,76.99
2022-08-28T16:14:21.120Z,76.56
2022-08-28T16:15:21.354Z,77.56
2022-08-28T16:16:19.323Z,76.26
2022-08-28T16:17:19.295Z,75.56
2022-08-28T16:18:19.282Z,75.16
2022-08-28T16:19:19.283Z,75.56
2022-08-28T16:20:19.261Z,74.85
2022-08-28T16:21:19.252Z,74.66
2022-08-28T16:22:19.243Z,74.96
2022-08-28T16:23:19.235Z,74.96
2022-08-28T16:24:19.241Z,75.26
2022-08-28T16:25:19.218Z,76.15
2022-08-28T16:26:19.206Z,76.26
2022-08-28T16:27:19.199Z,76.45
2022-08-28T16:28:19.190Z,76.65
2022-08-28T16:29:19.198Z,76.15
2022-08-28T16:30:19.170Z,76.39
2022-08-28T16:31:20.560Z,76.49
2022-08-28T16:32:19.153Z,76.59
2022-08-28T16:33:19.148Z,75.79
2022-08-28T16:34:19.671Z,75.79
2022-08-28T16:35:19.131Z,76.49
2022-08-28T16:36:19.460Z,75.79
2022-08-28T16:37:21.124Z,75.83
2022-08-28T16:38:19.095Z,76.03
2022-08-28T16:39:19.109Z,76.13
2022-08-28T16:40:19.143Z,75.93
2022-08-28T16:41:19.077Z,76.03
2022-08-28T16:42:19.064Z,76.13
2022-08-28T16:43:19.061Z,76.03
2022-08-28T16:44:19.064Z,75.93
2022-08-28T16:45:19.040Z,75.96
2022-08-28T16:46:19.081Z,76.26
2022-08-28T16:47:19.024Z,76.37
2022-08-28T16:48:19.044Z,76.67
2022-08-28T16:49:19.105Z,76.50
2022-08-28T16:50:18.992Z,76.80
2022-08-28T16:51:18.996Z,77.00
2022-08-28T16:52:18.978Z,77.10
2022-08-28T16:53:26.980Z,77.30
2022-08-28T16:54:18.978Z,77.60
2022-08-28T16:55:18.954Z,77.84
2022-08-28T16:56:18.964Z,78.24
2022-08-28T16:57:18.940Z,78.34
2022-08-28T16:58:19.066Z,78.24
2022-08-28T16:59:18.937Z,78.64
2022-08-28T17:00:18.997Z,78.44
2022-08-28T17:01:18.920Z,78.44
2022-08-28T17:02:19.042Z,78.34
2022-08-28T17:03:21.977Z,78.74
2022-08-28T17:04:18.880Z,78.74
2022-08-28T17:05:18.876Z,78.88
2022-08-28T17:06:18.852Z,78.58
2022-08-28T17:07:18.842Z,78.68
2022-08-28T17:08:18.841Z,78.58
2022-08-28T17:09:20.934Z,78.88
2022-08-28T17:10:18.830Z,79.02
2022-08-28T17:11:18.800Z,79.32
2022-08-28T17:12:18.813Z,79.72
2022-08-28T17:13:18.784Z,79.52
2022-08-28T17:14:18.781Z,79.96
2022-08-28T17:15:18.794Z,80.06
2022-08-28T17:16:18.823Z,80.46
2022-08-28T17:17:18.751Z,80.70
2022-08-28T17:18:18.740Z,80.80
2022-08-28T17:19:18.730Z,81.40
2022-08-28T17:20:18.741Z,81.34
2022-08-28T17:21:18.712Z,81.94
2022-08-28T17:22:18.718Z,81.64
2022-08-28T17:23:18.705Z,81.84
2022-08-28T17:24:18.689Z,82.04
2022-08-28T17:25:18.699Z,82.14
2022-08-28T17:26:18.678Z,82.64
2022-08-28T17:27:22.605Z,81.84
2022-08-28T17:28:18.654Z,81.88
2022-08-28T17:29:18.642Z,82.28
2022-08-28T17:30:18.643Z,82.08
2022-08-28T17:31:18.679Z,82.08
2022-08-28T17:32:18.616Z,82.18
2022-08-28T17:33:18.720Z,82.58
2022-08-28T17:34:20.511Z,82.18
2022-08-28T17:35:18.712Z,81.88
2022-08-28T17:36:32.386Z,82.18
2022-08-28T17:37:18.637Z,82.18
2022-08-28T17:38:18.556Z,82.48
2022-08-28T17:39:18.542Z,82.32
2022-08-28T17:40:18.720Z,82.92
2022-08-28T17:41:18.526Z,82.62
2022-08-28T17:42:18.520Z,82.82
2022-08-28T17:43:18.512Z,83.23
2022-08-28T17:44:18.499Z,83.03
2022-08-28T17:45:18.521Z,82.86
2022-08-28T17:46:18.649Z,82.76
2022-08-28T17:47:18.470Z,83.37
2022-08-28T17:48:18.533Z,83.57
2022-08-28T17:49:18.449Z,83.47
2022-08-28T17:50:18.464Z,84.21
2022-08-28T17:51:18.457Z,84.01
2022-08-28T17:52:18.431Z,84.71
2022-08-28T17:53:18.424Z,84.21
2022-08-28T17:54:18.563Z,83.91
2022-08-28T17:55:18.460Z,83.91
2022-08-28T17:56:20.283Z,84.31
2022-08-28T17:57:18.385Z,84.01
2022-08-28T17:58:18.568Z,83.61
2022-08-28T17:59:18.387Z,84.11
2022-08-28T18:00:18.362Z,83.84
2022-08-28T18:01:18.421Z,84.35
2022-08-28T18:02:18.350Z,84.80
2022-08-28T18:03:18.322Z,84.69
2022-08-28T18:04:23.607Z,85.54
2022-08-28T18:05:18.353Z,86.24
2022-08-28T18:06:18.298Z,86.69
2022-08-28T18:07:18.301Z,86.79
2022-08-28T18:08:18.287Z,87.40
2022-08-28T18:09:18.274Z,87.40
2022-08-28T18:10:18.280Z,86.79
2022-08-28T18:11:18.249Z,86.89
2022-08-28T18:12:18.256Z,87.29
2022-08-28T18:13:18.233Z,87.03
2022-08-28T18:14:18.238Z,86.63
2022-08-28T18:15:18.212Z,86.93
2022-08-28T18:16:18.257Z,87.74
2022-08-28T18:17:18.209Z,88.28
2022-08-28T18:18:18.194Z,88.39
2022-08-28T18:19:18.204Z,88.48
2022-08-28T18:20:18.218Z,88.89
2022-08-28T18:21:18.224Z,89.54
2022-08-28T18:22:29.654Z,89.54
2022-08-28T18:23:18.215Z,89.64
2022-08-28T18:24:18.231Z,89.84
2022-08-28T18:25:18.147Z,89.94
2022-08-28T18:26:18.119Z,89.43
2022-08-28T18:27:18.113Z,89.23
2022-08-28T18:28:22.123Z,89.37
2022-08-28T18:29:18.142Z,89.68
2022-08-28T18:30:18.142Z,89.37
2022-08-28T18:31:18.217Z,89.68
2022-08-28T18:32:18.118Z,89.78
2022-08-28T18:33:18.118Z,89.48
2022-08-28T18:34:18.130Z,89.58
2022-08-28T18:35:18.137Z,89.68
2022-08-28T18:36:18.112Z,89.88
2022-08-28T18:37:18.070Z,89.58
2022-08-28T18:38:18.071Z,89.58
2022-08-28T18:39:29.692Z,89.48
2022-08-28T18:40:18.088Z,89.37
2022-08-28T18:41:18.073Z,89.28
2022-08-28T18:42:18.875Z,89.68
2022-08-28T18:43:18.136Z,89.68
2022-08-28T18:44:22.403Z,89.88
2022-08-28T18:45:18.138Z,90.43
2022-08-28T18:46:18.064Z,90.43
2022-08-28T18:47:17.990Z,90.43
2022-08-28T18:48:17.986Z,90.43
2022-08-28T18:49:18.005Z,90.58
2022-08-28T18:50:18.025Z,90.58
2022-08-28T18:51:21.743Z,91.34
2022-08-28T18:52:17.951Z,90.83
2022-08-28T18:53:17.939Z,90.63
2022-08-28T18:54:17.948Z,90.43
2022-08-28T18:55:17.928Z,90.12
2022-08-28T18:56:17.914Z,90.47
2022-08-28T18:57:18.047Z,90.47
2022-08-28T18:58:17.929Z,90.37
2022-08-28T18:59:17.907Z,90.37
2022-08-28T19:00:17.954Z,90.58
2022-08-28T19:01:17.927Z,90.47
2022-08-28T19:02:17.983Z,90.07
2022-08-28T19:03:17.838Z,89.76
2022-08-28T19:04:17.842Z,90.27
2022-08-28T19:05:18.003Z,89.87
2022-08-28T19:06:17.819Z,90.58
2022-08-28T19:07:17.813Z,91.38
2022-08-28T19:08:17.820Z,91.18
2022-08-28T19:09:20.201Z,91.28
2022-08-28T19:10:32.754Z,91.63
2022-08-28T19:11:17.774Z,91.53
2022-08-28T19:12:17.769Z,91.42
2022-08-28T19:13:17.750Z,91.42
2022-08-28T19:14:17.745Z,91.63
2022-08-28T19:15:17.759Z,91.73
2022-08-28T19:16:17.915Z,91.42
2022-08-28T19:17:21.004Z,91.63
2022-08-28T19:18:17.712Z,91.42
2022-08-28T19:19:17.720Z,91.77
2022-08-28T19:20:17.721Z,91.77
2022-08-28T19:21:17.710Z,91.83
2022-08-28T19:22:17.703Z,92.24
2022-08-28T19:23:18.099Z,91.63
2022-08-28T19:24:17.683Z,91.73
2022-08-28T19:25:27.619Z,92.24
2022-08-28T19:26:17.643Z,92.33
2022-08-28T19:27:17.645Z,91.63
2022-08-28T19:28:17.620Z,91.32
2022-08-28T19:29:17.610Z,90.92
2022-08-28T19:30:17.602Z,90.82
2022-08-28T19:31:17.785Z,90.72
2022-08-28T19:32:17.601Z,90.52
2022-08-28T19:33:17.573Z,91.12
2022-08-28T19:34:17.591Z,91.32
2022-08-28T19:35:17.593Z,91.02
2022-08-28T19:36:17.594Z,91.42
2022-08-28T19:37:17.541Z,91.67
2022-08-28T19:38:17.565Z,91.27
2022-08-28T19:39:17.552Z,91.87
2022-08-28T19:40:17.549Z,92.02
2022-08-28T19:41:17.531Z,92.72
2022-08-28T19:42:17.503Z,92.72
2022-08-28T19:43:17.494Z,93.03
2022-08-28T19:44:17.494Z,93.27
2022-08-28T19:45:17.492Z,93.27
2022-08-28T19:46:19.505Z,92.97
2022-08-28T19:47:17.476Z,92.97
2022-08-28T19:48:17.454Z,92.97
2022-08-28T19:49:17.439Z,93.18
2022-08-28T19:50:17.440Z,93.07
2022-08-28T19:51:22.928Z,93.07
2022-08-28T19:52:17.411Z,92.77
2022-08-28T19:53:17.409Z,93.07
2022-08-28T19:54:17.398Z,92.87
2022-08-28T19:55:17.384Z,92.67
2022-08-28T19:56:17.391Z,92.57
2022-08-28T19:57:17.392Z,92.57
2022-08-28T19:58:17.408Z,92.57
2022-08-28T19:59:17.337Z,92.47
2022-08-28T20:00:17.335Z,92.47
2022-08-28T20:01:17.364Z,92.47
2022-08-28T20:02:17.354Z,92.47
2022-08-28T20:03:17.313Z,92.57
2022-08-28T20:04:17.296Z,92.67
2022-08-28T20:05:17.283Z,92.47
2022-08-28T20:06:17.291Z,92.36
2022-08-28T20:07:17.261Z,92.77
2022-08-28T20:08:17.352Z,93.07
2022-08-28T20:09:17.259Z,93.38
2022-08-28T20:10:17.239Z,93.18
2022-08-28T20:11:17.241Z,93.07
2022-08-28T20:12:17.223Z,93.78
2022-08-28T20:13:17.220Z,93.58
2022-08-28T20:14:17.206Z,93.88
2022-08-28T20:15:17.193Z,93.99
2022-08-28T20:16:17.241Z,94.09
2022-08-28T20:17:17.172Z,93.78
2022-08-28T20:18:17.180Z,93.58
2022-08-28T20:19:17.154Z,93.27
2022-08-28T20:20:17.152Z,93.03
2022-08-28T20:21:17.135Z,92.83
2022-08-28T20:22:17.145Z,92.83
2022-08-28T20:23:17.167Z,92.16
2022-08-28T20:24:17.124Z,91.96
2022-08-28T20:25:17.101Z,91.86
2022-08-28T20:26:17.097Z,92.36
2022-08-28T20:27:17.088Z,92.36
2022-08-28T20:28:17.100Z,92.36
2022-08-28T20:29:17.063Z,92.67
2022-08-28T20:30:17.061Z,93.07
2022-08-28T20:31:17.207Z,92.47
2022-08-28T20:32:17.049Z,93.02
2022-08-28T20:33:17.060Z,93.52
2022-08-28T20:34:17.030Z,93.93
2022-08-28T20:35:17.108Z,94.48
2022-08-28T20:36:20.977Z,94.27
2022-08-28T20:37:16.992Z,94.48
2022-08-28T20:38:16.995Z,94.48
2022-08-28T20:39:17.008Z,94.38
2022-08-28T20:40:17.099Z,94.32
2022-08-28T20:41:16.958Z,94.32
2022-08-28T20:42:16.974Z,94.73
2022-08-28T20:43:16.958Z,94.68
2022-08-28T20:44:16.950Z,94.48
2022-08-28T20:45:16.947Z,94.38
2022-08-28T20:46:17.019Z,94.58
2022-08-28T20:47:16.930Z,94.38
2022-08-28T20:48:16.926Z,94.58
2022-08-28T20:49:16.913Z,94.78
2022-08-28T20:50:16.885Z,94.58
2022-08-28T20:51:16.879Z,94.42
2022-08-28T20:52:16.870Z,94.53
2022-08-28T20:53:37.038Z,94.53
2022-08-28T20:54:16.894Z,94.83
2022-08-28T20:55:16.857Z,94.73
2022-08-28T20:56:16.831Z,94.42
2022-08-28T20:57:16.824Z,94.32
2022-08-28T20:58:16.825Z,94.53
2022-08-28T20:59:16.829Z,94.22
2022-08-28T21:00:16.796Z,94.32
2022-08-28T21:01:16.873Z,95.03
2022-08-28T21:02:16.784Z,94.62
2022-08-28T21:03:16.789Z,94.42
2022-08-28T21:04:16.777Z,94.53
2022-08-28T21:05:16.892Z,94.42
2022-08-28T21:06:16.829Z,94.62
2022-08-28T21:07:16.743Z,94.53
2022-08-28T21:08:16.785Z,94.22
2022-08-28T21:09:16.734Z,94.57
2022-08-28T21:10:17.043Z,94.57
2022-08-28T21:11:16.711Z,94.77
2022-08-28T21:12:16.714Z,94.87
2022-08-28T21:13:16.704Z,94.77
2022-08-28T21:14:16.678Z,94.87
2022-08-28T21:15:16.689Z,94.46
2022-08-28T21:16:16.682Z,94.57
2022-08-28T21:17:16.892Z,94.98
2022-08-28T21:18:16.647Z,94.98
2022-08-28T21:19:16.854Z,94.67
2022-08-28T21:20:16.626Z,94.67
2022-08-28T21:21:16.619Z,94.83
2022-08-28T21:22:17.430Z,95.23
2022-08-28T21:23:16.616Z,95.23
2022-08-28T21:24:16.579Z,94.83
2022-08-28T21:25:16.598Z,94.73
2022-08-28T21:26:16.587Z,94.22
2022-08-28T21:27:16.590Z,94.42
2022-08-28T21:28:16.829Z,94.22
2022-08-28T21:29:19.938Z,94.53
2022-08-28T21:30:16.580Z,94.73
2022-08-28T21:31:19.005Z,94.73
2022-08-28T21:32:16.549Z,94.77
2022-08-28T21:33:16.562Z,94.98
2022-08-28T21:34:18.232Z,94.98
2022-08-28T21:35:16.540Z,95.18
2022-08-28T21:36:16.540Z,93.76
2022-08-28T21:37:16.501Z,93.65
2022-08-28T21:38:16.486Z,94.06
2022-08-28T21:39:16.481Z,94.37
2022-08-28T21:40:16.511Z,94.87
2022-08-28T21:41:24.923Z,95.23
2022-08-28T21:42:25.944Z,95.13
2022-08-28T21:43:16.442Z,94.32
2022-08-28T21:44:16.402Z,93.30
2022-08-28T21:45:16.449Z,92.90
2022-08-28T21:46:18.283Z,93.00
2022-08-28T21:47:16.414Z,93.30
2022-08-28T21:48:18.132Z,93.71
2022-08-28T21:49:16.421Z,93.61
2022-08-28T21:50:16.416Z,93.30
2022-08-28T21:51:17.958Z,93.61
2022-08-28T21:52:16.666Z,93.86
2022-08-28T21:53:16.365Z,93.76
2022-08-28T21:54:16.355Z,93.96
2022-08-28T21:55:16.364Z,94.37
2022-08-28T21:56:16.366Z,94.67
2022-08-28T21:57:18.960Z,94.57
2022-08-28T21:58:16.333Z,94.46
2022-08-28T21:59:16.303Z,94.67
2022-08-28T22:00:16.305Z,94.67
2022-08-28T22:01:16.381Z,94.26
2022-08-28T22:02:16.324Z,94.02
2022-08-28T22:03:16.316Z,93.81
2022-08-28T22:04:16.262Z,93.81
2022-08-28T22:05:16.988Z,93.55
2022-08-28T22:06:16.501Z,93.76
2022-08-28T22:07:34.157Z,94.06
2022-08-28T22:08:18.496Z,94.06
2022-08-28T22:09:23.478Z,93.65
2022-08-28T22:10:16.229Z,93.76
2022-08-28T22:11:17.022Z,93.45
2022-08-28T22:12:16.224Z,93.45
2022-08-28T22:13:25.497Z,93.45
2022-08-28T22:16:27.177Z,93.76
